Terminal Aerodrome Forecast
Issued by NWS

Home | Current Version | Previous Version | Text Only | Print | Product List | Glossary On
Versions: 1 2 3 4 5 6 7 8 9 10 11 12 13
847
FTUS46 KHNX 271315 AAA
TAFBFL
TAF AMD
KBFL 271315Z 2713/2812 33012KT P6SM FEW015 SCT040
      TEMPO 2713/2717 BKN015 BKN040
     FM272200 33014G24KT P6SM FEW040
     FM280300 33007KT P6SM SCT250=

USA.gov is the U.S. government's official web portal to all federal, state and local government web resources and services.